sensor_id;sensor_type;location;lat;lon;timestamp;temperature;humidity
25170;DHT22;13129;48.012;10.352;2024-02-16T05:12:01;4.50;99.90
25170;DHT22;13129;48.012;10.352;2024-02-16T05:15:05;4.50;99.90
25170;DHT22;13129;48.012;10.352;2024-02-16T05:18:09;4.50;99.90
25170;DHT22;13129;48.012;10.352;2024-02-16T05:20:37;4.50;99.90
25170;DHT22;13129;48.012;10.352;2024-02-16T05:23:03;4.50;99.90
25170;DHT22;13129;48.012;10.352;2024-02-16T05:25:28;4.50;99.90
25170;DHT22;13129;48.012;10.352;2024-02-16T05:27:55;4.40;99.90
25170;DHT22;13129;48.012;10.352;2024-02-16T05:30:20;4.50;99.90
25170;DHT22;13129;48.012;10.352;2024-02-16T05:32:46;4.50;99.90
25170;DHT22;13129;48.012;10.352;2024-02-16T05:35:11;4.50;99.90
25170;DHT22;13129;48.012;10.352;2024-02-16T05:37:38;4.50;99.90
25170;DHT22;13129;48.012;10.352;2024-02-16T05:40:08;4.40;99.90
25170;DHT22;13129;48.012;10.352;2024-02-16T05:42:44;4.40;99.90
25170;DHT22;13129;48.012;10.352;2024-02-16T05:45:09;4.30;99.90
25170;DHT22;13129;48.012;10.352;2024-02-16T05:47:36;4.30;99.90
25170;DHT22;13129;48.012;10.352;2024-02-16T05:50:04;4.20;99.90
25170;DHT22;13129;48.012;10.352;2024-02-16T05:52:30;4.10;99.90
25170;DHT22;13129;48.012;10.352;2024-02-16T05:54:55;4.00;99.90
25170;DHT22;13129;48.012;10.352;2024-02-16T05:57:21;3.90;99.90
25170;DHT22;13129;48.012;10.352;2024-02-16T05:59:47;3.80;99.90
25170;DHT22;13129;48.012;10.352;2024-02-16T06:02:12;3.70;99.90
25170;DHT22;13129;48.012;10.352;2024-02-16T06:04:38;3.60;99.90
25170;DHT22;13129;48.012;10.352;2024-02-16T06:07:04;3.60;99.90
25170;DHT22;13129;48.012;10.352;2024-02-16T06:09:31;3.70;99.90
25170;DHT22;13129;48.012;10.352;2024-02-16T06:12:02;3.70;99.90
25170;DHT22;13129;48.012;10.352;2024-02-16T06:14:29;3.80;99.90
25170;DHT22;13129;48.012;10.352;2024-02-16T06:16:55;3.90;99.90
25170;DHT22;13129;48.012;10.352;2024-02-16T06:19:21;4.00;99.90
25170;DHT22;13129;48.012;10.352;2024-02-16T06:21:46;3.90;99.90
25170;DHT22;13129;48.012;10.352;2024-02-16T06:24:12;4.00;99.90
25170;DHT22;13129;48.012;10.352;2024-02-16T06:26:50;4.00;99.90
25170;DHT22;13129;48.012;10.352;2024-02-16T06:29:17;4.00;99.90
25170;DHT22;13129;48.012;10.352;2024-02-16T06:31:42;4.00;99.90
25170;DHT22;13129;48.012;10.352;2024-02-16T06:34:08;4.10;99.90
25170;DHT22;13129;48.012;10.352;2024-02-16T06:36:34;4.20;99.90
25170;DHT22;13129;48.012;10.352;2024-02-16T06:39:00;4.20;99.90
25170;DHT22;13129;48.012;10.352;2024-02-16T06:41:26;4.20;99.90
25170;DHT22;13129;48.012;10.352;2024-02-16T06:43:52;4.30;99.90
25170;DHT22;13129;48.012;10.352;2024-02-16T06:49:34;4.30;99.90
25170;DHT22;13129;48.012;10.352;2024-02-16T06:55:41;4.40;99.90
25170;DHT22;13129;48.012;10.352;2024-02-16T06:58:06;4.60;99.90
25170;DHT22;13129;48.012;10.352;2024-02-16T07:00:32;4.60;99.90
25170;DHT22;13129;48.012;10.352;2024-02-16T07:02:57;4.60;99.90
25170;DHT22;13129;48.012;10.352;2024-02-16T07:05:23;4.80;99.90
25170;DHT22;13129;48.012;10.352;2024-02-16T07:07:48;4.90;99.90
25170;DHT22;13129;48.012;10.352;2024-02-16T07:10:15;5.00;99.90
25170;DHT22;13129;48.012;10.352;2024-02-16T07:12:41;5.20;99.90
25170;DHT22;13129;48.012;10.352;2024-02-16T07:15:07;5.20;99.90
25170;DHT22;13129;48.012;10.352;2024-02-16T07:17:33;5.40;99.90
25170;DHT22;13129;48.012;10.352;2024-02-16T07:20:00;5.50;99.90
25170;DHT22;13129;48.012;10.352;2024-02-16T07:22:29;5.70;99.90
25170;DHT22;13129;48.012;10.352;2024-02-16T07:24:54;5.80;99.90
25170;DHT22;13129;48.012;10.352;2024-02-16T07:27:20;5.90;99.90
25170;DHT22;13129;48.012;10.352;2024-02-16T07:29:45;6.10;99.90
25170;DHT22;13129;48.012;10.352;2024-02-16T07:32:11;6.20;99.90
25170;DHT22;13129;48.012;10.352;2024-02-16T07:34:37;6.30;99.90
25170;DHT22;13129;48.012;10.352;2024-02-16T07:37:03;6.40;99.90
25170;DHT22;13129;48.012;10.352;2024-02-16T07:39:29;6.60;99.90
25170;DHT22;13129;48.012;10.352;2024-02-16T07:41:55;6.80;99.90
25170;DHT22;13129;48.012;10.352;2024-02-16T07:44:24;6.90;99.90
25170;DHT22;13129;48.012;10.352;2024-02-16T07:49:53;7.20;99.90
25170;DHT22;13129;48.012;10.352;2024-02-16T07:52:19;7.40;99.90
25170;DHT22;13129;48.012;10.352;2024-02-16T07:54:44;7.60;99.90
25170;DHT22;13129;48.012;10.352;2024-02-16T07:57:10;7.70;99.90
25170;DHT22;13129;48.012;10.352;2024-02-16T07:59:36;7.90;99.90
25170;DHT22;13129;48.012;10.352;2024-02-16T08:02:01;8.00;99.90
25170;DHT22;13129;48.012;10.352;2024-02-16T08:04:28;8.20;99.90
25170;DHT22;13129;48.012;10.352;2024-02-16T08:06:53;8.40;99.90
25170;DHT22;13129;48.012;10.352;2024-02-16T08:09:20;8.70;99.90
25170;DHT22;13129;48.012;10.352;2024-02-16T08:11:45;9.10;99.90
25170;DHT22;13129;48.012;10.352;2024-02-16T08:14:11;9.70;99.90
25170;DHT22;13129;48.012;10.352;2024-02-16T08:16:57;10.30;99.90
25170;DHT22;13129;48.012;10.352;2024-02-16T08:19:23;10.50;99.90
25170;DHT22;13129;48.012;10.352;2024-02-16T08:21:49;10.50;99.90
25170;DHT22;13129;48.012;10.352;2024-02-16T08:24:14;10.60;99.90
25170;DHT22;13129;48.012;10.352;2024-02-16T08:26:40;10.80;99.90
25170;DHT22;13129;48.012;10.352;2024-02-16T08:29:05;10.90;99.90
25170;DHT22;13129;48.012;10.352;2024-02-16T08:31:31;11.00;99.90
25170;DHT22;13129;48.012;10.352;2024-02-16T08:33:57;10.90;99.90
25170;DHT22;13129;48.012;10.352;2024-02-16T08:36:22;10.80;99.90
25170;DHT22;13129;48.012;10.352;2024-02-16T08:38:53;10.70;99.90
25170;DHT22;13129;48.012;10.352;2024-02-16T08:41:19;10.70;99.90
25170;DHT22;13129;48.012;10.352;2024-02-16T08:43:44;11.00;99.90
25170;DHT22;13129;48.012;10.352;2024-02-16T08:46:10;11.50;99.90
25170;DHT22;13129;48.012;10.352;2024-02-16T08:48:35;12.10;99.90
25170;DHT22;13129;48.012;10.352;2024-02-16T08:51:01;13.00;99.90
25170;DHT22;13129;48.012;10.352;2024-02-16T08:53:27;14.00;99.90
25170;DHT22;13129;48.012;10.352;2024-02-16T08:55:53;14.90;99.90
25170;DHT22;13129;48.012;10.352;2024-02-16T08:58:18;15.90;99.90
25170;DHT22;13129;48.012;10.352;2024-02-16T09:00:44;16.90;99.90
25170;DHT22;13129;48.012;10.352;2024-02-16T09:03:10;17.60;99.90
25170;DHT22;13129;48.012;10.352;2024-02-16T09:05:35;17.80;99.90
25170;DHT22;13129;48.012;10.352;2024-02-16T09:08:02;17.80;99.90
25170;DHT22;13129;48.012;10.352;2024-02-16T09:10:28;17.30;99.90
25170;DHT22;13129;48.012;10.352;2024-02-16T09:12:53;17.10;99.90
25170;DHT22;13129;48.012;10.352;2024-02-16T09:15:19;17.30;99.90
25170;DHT22;13129;48.012;10.352;2024-02-16T09:17:44;17.00;99.90
25170;DHT22;13129;48.012;10.352;2024-02-16T09:20:10;16.90;99.70
25170;DHT22;13129;48.012;10.352;2024-02-16T09:22:36;16.90;99.60
25170;DHT22;13129;48.012;10.352;2024-02-16T09:25:02;17.00;99.30
25170;DHT22;13129;48.012;10.352;2024-02-16T09:27:28;17.00;98.70
25170;DHT22;13129;48.012;10.352;2024-02-16T09:29:53;17.40;97.50
25170;DHT22;13129;48.012;10.352;2024-02-16T09:32:19;17.60;95.10
25170;DHT22;13129;48.012;10.352;2024-02-16T09:34:44;17.50;94.50
25170;DHT22;13129;48.012;10.352;2024-02-16T09:37:10;17.40;93.90
25170;DHT22;13129;48.012;10.352;2024-02-16T09:39:37;17.30;93.50
25170;DHT22;13129;48.012;10.352;2024-02-16T09:42:03;17.10;93.10
25170;DHT22;13129;48.012;10.352;2024-02-16T09:44:28;17.30;93.50
25170;DHT22;13129;48.012;10.352;2024-02-16T09:46:55;17.70;93.00
25170;DHT22;13129;48.012;10.352;2024-02-16T09:49:21;18.50;92.60
25170;DHT22;13129;48.012;10.352;2024-02-16T09:51:46;19.10;90.80
25170;DHT22;13129;48.012;10.352;2024-02-16T09:54:12;20.00;90.30
25170;DHT22;13129;48.012;10.352;2024-02-16T09:56:37;20.80;85.30
25170;DHT22;13129;48.012;10.352;2024-02-16T09:59:03;21.60;82.80
25170;DHT22;13129;48.012;10.352;2024-02-16T10:01:28;22.50;79.10
25170;DHT22;13129;48.012;10.352;2024-02-16T10:03:59;23.00;75.00
25170;DHT22;13129;48.012;10.352;2024-02-16T10:06:30;23.40;72.70
25170;DHT22;13129;48.012;10.352;2024-02-16T10:08:55;23.40;69.80
25170;DHT22;13129;48.012;10.352;2024-02-16T10:11:23;23.50;69.40
25170;DHT22;13129;48.012;10.352;2024-02-16T10:16:21;23.60;66.70
25170;DHT22;13129;48.012;10.352;2024-02-16T10:18:47;23.10;66.40
25170;DHT22;13129;48.012;10.352;2024-02-16T10:21:13;22.80;67.30
25170;DHT22;13129;48.012;10.352;2024-02-16T10:23:38;23.10;67.30
25170;DHT22;13129;48.012;10.352;2024-02-16T10:26:03;23.70;65.20
25170;DHT22;13129;48.012;10.352;2024-02-16T10:28:29;23.90;63.20
25170;DHT22;13129;48.012;10.352;2024-02-16T10:30:59;23.40;63.60
25170;DHT22;13129;48.012;10.352;2024-02-16T10:33:27;22.70;64.50
25170;DHT22;13129;48.012;10.352;2024-02-16T10:35:53;22.40;66.00
25170;DHT22;13129;48.012;10.352;2024-02-16T10:38:21;22.20;65.90
25170;DHT22;13129;48.012;10.352;2024-02-16T10:40:46;22.00;66.10
25170;DHT22;13129;48.012;10.352;2024-02-16T10:43:12;22.00;66.50
25170;DHT22;13129;48.012;10.352;2024-02-16T10:45:38;22.50;66.20
25170;DHT22;13129;48.012;10.352;2024-02-16T10:48:05;23.10;64.60
25170;DHT22;13129;48.012;10.352;2024-02-16T10:50:31;23.90;62.80
25170;DHT22;13129;48.012;10.352;2024-02-16T10:52:57;24.50;60.70
25170;DHT22;13129;48.012;10.352;2024-02-16T10:55:24;24.20;60.50
25170;DHT22;13129;48.012;10.352;2024-02-16T10:57:50;24.20;60.70
25170;DHT22;13129;48.012;10.352;2024-02-16T11:00:15;24.90;58.50
25170;DHT22;13129;48.012;10.352;2024-02-16T11:05:18;25.20;58.00
25170;DHT22;13129;48.012;10.352;2024-02-16T11:07:43;25.70;57.10
25170;DHT22;13129;48.012;10.352;2024-02-16T11:10:11;26.60;56.70
25170;DHT22;13129;48.012;10.352;2024-02-16T11:12:37;27.40;55.10
25170;DHT22;13129;48.012;10.352;2024-02-16T11:15:04;27.50;54.10
25170;DHT22;13129;48.012;10.352;2024-02-16T11:17:33;27.80;54.20
25170;DHT22;13129;48.012;10.352;2024-02-16T11:20:00;27.70;53.40
25170;DHT22;13129;48.012;10.352;2024-02-16T11:22:26;27.60;53.10
25170;DHT22;13129;48.012;10.352;2024-02-16T11:24:53;27.30;52.90
25170;DHT22;13129;48.012;10.352;2024-02-16T11:27:19;26.70;53.90
25170;DHT22;13129;48.012;10.352;2024-02-16T11:29:45;25.90;54.60
25170;DHT22;13129;48.012;10.352;2024-02-16T11:32:10;24.90;56.30
25170;DHT22;13129;48.012;10.352;2024-02-16T11:34:36;24.00;57.20
25170;DHT22;13129;48.012;10.352;2024-02-16T11:37:03;23.20;58.10
25170;DHT22;13129;48.012;10.352;2024-02-16T11:39:30;22.80;59.40
25170;DHT22;13129;48.012;10.352;2024-02-16T11:42:09;22.00;60.30
25170;DHT22;13129;48.012;10.352;2024-02-16T11:44:39;21.50;61.30
25170;DHT22;13129;48.012;10.352;2024-02-16T11:47:08;21.00;62.40
25170;DHT22;13129;48.012;10.352;2024-02-16T11:49:40;20.60;63.50
25170;DHT22;13129;48.012;10.352;2024-02-16T11:52:06;20.10;65.10
25170;DHT22;13129;48.012;10.352;2024-02-16T11:54:32;19.70;66.40
25170;DHT22;13129;48.012;10.352;2024-02-16T11:56:57;19.50;67.10
25170;DHT22;13129;48.012;10.352;2024-02-16T11:59:23;19.10;68.10
25170;DHT22;13129;48.012;10.352;2024-02-16T12:01:56;19.00;68.40
25170;DHT22;13129;48.012;10.352;2024-02-16T12:04:25;18.70;68.90
25170;DHT22;13129;48.012;10.352;2024-02-16T12:07:00;18.40;70.00
25170;DHT22;13129;48.012;10.352;2024-02-16T12:09:26;18.10;70.80
25170;DHT22;13129;48.012;10.352;2024-02-16T12:11:52;17.90;71.50
25170;DHT22;13129;48.012;10.352;2024-02-16T12:14:18;17.80;72.20
25170;DHT22;13129;48.012;10.352;2024-02-16T12:16:51;17.70;72.80
25170;DHT22;13129;48.012;10.352;2024-02-16T12:19:18;17.60;73.10
25170;DHT22;13129;48.012;10.352;2024-02-16T12:21:43;17.50;73.50
25170;DHT22;13129;48.012;10.352;2024-02-16T12:24:09;17.50;73.60
25170;DHT22;13129;48.012;10.352;2024-02-16T12:26:35;17.30;73.70
25170;DHT22;13129;48.012;10.352;2024-02-16T12:29:01;17.30;74.00
25170;DHT22;13129;48.012;10.352;2024-02-16T12:31:26;17.30;74.60
25170;DHT22;13129;48.012;10.352;2024-02-16T12:33:52;17.30;74.70
25170;DHT22;13129;48.012;10.352;2024-02-16T12:36:17;17.30;75.00
25170;DHT22;13129;48.012;10.352;2024-02-16T12:38:43;17.20;75.10
25170;DHT22;13129;48.012;10.352;2024-02-16T12:41:09;17.20;75.40
25170;DHT22;13129;48.012;10.352;2024-02-16T12:43:35;17.20;75.70
25170;DHT22;13129;48.012;10.352;2024-02-16T12:46:00;17.10;76.50
25170;DHT22;13129;48.012;10.352;2024-02-16T12:48:29;17.00;75.80
25170;DHT22;13129;48.012;10.352;2024-02-16T12:50:54;17.00;76.10
25170;DHT22;13129;48.012;10.352;2024-02-16T12:53:20;16.80;77.20
25170;DHT22;13129;48.012;10.352;2024-02-16T12:55:46;16.80;76.50
25170;DHT22;13129;48.012;10.352;2024-02-16T12:58:13;16.80;77.00
25170;DHT22;13129;48.012;10.352;2024-02-16T13:00:38;16.70;77.10
25170;DHT22;13129;48.012;10.352;2024-02-16T13:03:04;16.60;77.60
25170;DHT22;13129;48.012;10.352;2024-02-16T13:05:29;16.60;77.60
25170;DHT22;13129;48.012;10.352;2024-02-16T13:07:57;16.70;78.40
25170;DHT22;13129;48.012;10.352;2024-02-16T13:10:22;16.50;78.20
25170;DHT22;13129;48.012;10.352;2024-02-16T13:12:48;16.50;78.20
25170;DHT22;13129;48.012;10.352;2024-02-16T13:15:13;16.40;78.70
25170;DHT22;13129;48.012;10.352;2024-02-16T13:17:39;16.30;79.10
25170;DHT22;13129;48.012;10.352;2024-02-16T13:20:04;16.20;79.50
25170;DHT22;13129;48.012;10.352;2024-02-16T13:22:35;16.10;79.90
25170;DHT22;13129;48.012;10.352;2024-02-16T13:25:01;16.10;79.90
25170;DHT22;13129;48.012;10.352;2024-02-16T13:27:26;16.00;81.00
25170;DHT22;13129;48.012;10.352;2024-02-16T13:29:52;15.90;80.40
25170;DHT22;13129;48.012;10.352;2024-02-16T13:32:19;15.80;81.00
25170;DHT22;13129;48.012;10.352;2024-02-16T13:34:44;15.70;82.30
25170;DHT22;13129;48.012;10.352;2024-02-16T13:37:10;15.60;81.80
25170;DHT22;13129;48.012;10.352;2024-02-16T13:39:35;15.50;82.20
25170;DHT22;13129;48.012;10.352;2024-02-16T13:42:01;15.40;82.30
25170;DHT22;13129;48.012;10.352;2024-02-16T13:44:26;15.20;82.80
25170;DHT22;13129;48.012;10.352;2024-02-16T13:46:52;15.10;83.30
25170;DHT22;13129;48.012;10.352;2024-02-16T13:49:17;14.90;83.80
25170;DHT22;13129;48.012;10.352;2024-02-16T13:51:43;14.70;84.20
25170;DHT22;13129;48.012;10.352;2024-02-16T13:54:08;14.60;84.80
25170;DHT22;13129;48.012;10.352;2024-02-16T13:56:34;14.50;85.10
25170;DHT22;13129;48.012;10.352;2024-02-16T13:59:01;14.40;85.60
25170;DHT22;13129;48.012;10.352;2024-02-16T14:01:28;14.30;85.80
25170;DHT22;13129;48.012;10.352;2024-02-16T14:03:54;14.30;86.20
25170;DHT22;13129;48.012;10.352;2024-02-16T14:06:20;14.30;86.60
25170;DHT22;13129;48.012;10.352;2024-02-16T14:08:45;14.20;87.00
25170;DHT22;13129;48.012;10.352;2024-02-16T14:11:13;14.20;87.60
25170;DHT22;13129;48.012;10.352;2024-02-16T14:13:38;14.20;87.70
25170;DHT22;13129;48.012;10.352;2024-02-16T14:16:04;14.30;87.70
25170;DHT22;13129;48.012;10.352;2024-02-16T14:18:30;14.30;87.60
25170;DHT22;13129;48.012;10.352;2024-02-16T14:20:55;14.40;88.00
25170;DHT22;13129;48.012;10.352;2024-02-16T14:23:21;14.40;88.00
25170;DHT22;13129;48.012;10.352;2024-02-16T14:25:46;14.50;88.30
25170;DHT22;13129;48.012;10.352;2024-02-16T14:28:12;14.50;88.20
25170;DHT22;13129;48.012;10.352;2024-02-16T14:30:38;14.60;88.80
25170;DHT22;13129;48.012;10.352;2024-02-16T14:33:05;14.60;88.70
25170;DHT22;13129;48.012;10.352;2024-02-16T14:35:30;14.60;88.70
25170;DHT22;13129;48.012;10.352;2024-02-16T14:37:57;14.60;89.20
25170;DHT22;13129;48.012;10.352;2024-02-16T14:40:23;14.70;89.30
25170;DHT22;13129;48.012;10.352;2024-02-16T14:42:48;14.70;89.50
25170;DHT22;13129;48.012;10.352;2024-02-16T14:45:14;14.70;89.70
25170;DHT22;13129;48.012;10.352;2024-02-16T14:47:46;14.70;89.80
25170;DHT22;13129;48.012;10.352;2024-02-16T14:50:12;14.70;90.00
25170;DHT22;13129;48.012;10.352;2024-02-16T14:52:38;14.70;90.00
25170;DHT22;13129;48.012;10.352;2024-02-16T14:55:04;14.70;90.10
25170;DHT22;13129;48.012;10.352;2024-02-16T14:57:30;14.60;90.10
25170;DHT22;13129;48.012;10.352;2024-02-16T14:59:55;14.60;90.30
25170;DHT22;13129;48.012;10.352;2024-02-16T15:02:22;14.60;90.30
25170;DHT22;13129;48.012;10.352;2024-02-16T15:04:49;14.50;90.40
25170;DHT22;13129;48.012;10.352;2024-02-16T15:07:16;14.50;90.60
25170;DHT22;13129;48.012;10.352;2024-02-16T15:09:41;14.50;90.70
25170;DHT22;13129;48.012;10.352;2024-02-16T15:12:07;14.50;90.70
25170;DHT22;13129;48.012;10.352;2024-02-16T15:14:33;14.50;90.90
25170;DHT22;13129;48.012;10.352;2024-02-16T15:17:00;14.50;91.00
25170;DHT22;13129;48.012;10.352;2024-02-16T15:19:25;14.50;91.00
25170;DHT22;13129;48.012;10.352;2024-02-16T15:21:51;14.40;91.10
25170;DHT22;13129;48.012;10.352;2024-02-16T15:24:16;14.40;91.30
25170;DHT22;13129;48.012;10.352;2024-02-16T15:26:42;14.30;91.40
25170;DHT22;13129;48.012;10.352;2024-02-16T15:29:07;14.30;91.60
25170;DHT22;13129;48.012;10.352;2024-02-16T15:31:33;14.20;91.70
25170;DHT22;13129;48.012;10.352;2024-02-16T15:33:58;14.20;91.90
25170;DHT22;13129;48.012;10.352;2024-02-16T15:36:24;14.10;92.00
25170;DHT22;13129;48.012;10.352;2024-02-16T15:38:49;14.10;92.20
25170;DHT22;13129;48.012;10.352;2024-02-16T15:41:16;14.00;92.40
25170;DHT22;13129;48.012;10.352;2024-02-16T15:43:42;14.00;92.70
25170;DHT22;13129;48.012;10.352;2024-02-16T15:46:07;13.90;92.80
25170;DHT22;13129;48.012;10.352;2024-02-16T15:48:35;13.80;93.00
25170;DHT22;13129;48.012;10.352;2024-02-16T15:51:01;13.80;93.20
25170;DHT22;13129;48.012;10.352;2024-02-16T15:53:26;13.70;93.30
25170;DHT22;13129;48.012;10.352;2024-02-16T15:55:52;13.60;93.50
25170;DHT22;13129;48.012;10.352;2024-02-16T15:58:18;13.60;93.70
25170;DHT22;13129;48.012;10.352;2024-02-16T16:00:43;13.50;93.80
25170;DHT22;13129;48.012;10.352;2024-02-16T16:03:09;13.40;94.10
25170;DHT22;13129;48.012;10.352;2024-02-16T16:05:35;13.30;94.30
25170;DHT22;13129;48.012;10.352;2024-02-16T16:08:01;13.30;94.60
25170;DHT22;13129;48.012;10.352;2024-02-16T16:10:26;13.20;94.80
25170;DHT22;13129;48.012;10.352;2024-02-16T16:12:52;13.10;94.90
25170;DHT22;13129;48.012;10.352;2024-02-16T16:15:17;13.10;95.10
25170;DHT22;13129;48.012;10.352;2024-02-16T16:17:43;12.90;95.30
25170;DHT22;13129;48.012;10.352;2024-02-16T16:20:08;12.80;95.50
25170;DHT22;13129;48.012;10.352;2024-02-16T16:22:34;12.80;95.70
25170;DHT22;13129;48.012;10.352;2024-02-16T16:25:00;12.70;96.00
25170;DHT22;13129;48.012;10.352;2024-02-16T16:27:25;12.60;96.20
25170;DHT22;13129;48.012;10.352;2024-02-16T16:29:50;12.60;96.40
25170;DHT22;13129;48.012;10.352;2024-02-16T16:32:16;12.50;96.60
25170;DHT22;13129;48.012;10.352;2024-02-16T16:34:41;12.40;96.80
25170;DHT22;13129;48.012;10.352;2024-02-16T16:37:07;12.40;97.10
25170;DHT22;13129;48.012;10.352;2024-02-16T16:39:32;12.30;97.30
25170;DHT22;13129;48.012;10.352;2024-02-16T16:41:58;12.30;97.80
25170;DHT22;13129;48.012;10.352;2024-02-16T16:44:24;12.20;97.80
25170;DHT22;13129;48.012;10.352;2024-02-16T16:46:50;12.20;98.10
25170;DHT22;13129;48.012;10.352;2024-02-16T22:47:00;10.80;99.90
25170;DHT22;13129;48.012;10.352;2024-02-16T22:49:26;10.80;99.90
25170;DHT22;13129;48.012;10.352;2024-02-16T22:51:51;10.80;99.90
25170;DHT22;13129;48.012;10.352;2024-02-16T22:54:17;10.80;99.90
25170;DHT22;13129;48.012;10.352;2024-02-16T22:56:43;10.70;99.90
25170;DHT22;13129;48.012;10.352;2024-02-16T22:59:08;10.70;99.90
25170;DHT22;13129;48.012;10.352;2024-02-16T23:01:34;10.70;99.90
25170;DHT22;13129;48.012;10.352;2024-02-16T23:03:59;10.70;99.90
25170;DHT22;13129;48.012;10.352;2024-02-16T23:06:25;10.70;99.90
25170;DHT22;13129;48.012;10.352;2024-02-16T23:08:51;10.70;99.90
25170;DHT22;13129;48.012;10.352;2024-02-16T23:11:16;10.70;99.90
25170;DHT22;13129;48.012;10.352;2024-02-16T23:13:42;10.70;99.90
25170;DHT22;13129;48.012;10.352;2024-02-16T23:16:08;10.70;99.90
25170;DHT22;13129;48.012;10.352;2024-02-16T23:18:35;10.70;99.90
25170;DHT22;13129;48.012;10.352;2024-02-16T23:21:00;10.70;99.90
25170;DHT22;13129;48.012;10.352;2024-02-16T23:23:27;10.70;99.90
25170;DHT22;13129;48.012;10.352;2024-02-16T23:25:53;10.60;99.90
25170;DHT22;13129;48.012;10.352;2024-02-16T23:28:18;10.70;99.90
25170;DHT22;13129;48.012;10.352;2024-02-16T23:30:44;10.60;99.90
25170;DHT22;13129;48.012;10.352;2024-02-16T23:33:10;10.60;99.90
25170;DHT22;13129;48.012;10.352;2024-02-16T23:35:35;10.60;99.90
25170;DHT22;13129;48.012;10.352;2024-02-16T23:38:01;10.60;99.90
25170;DHT22;13129;48.012;10.352;2024-02-16T23:40:27;10.60;99.90
25170;DHT22;13129;48.012;10.352;2024-02-16T23:42:53;10.60;99.90
25170;DHT22;13129;48.012;10.352;2024-02-16T23:45:19;10.60;99.90
25170;DHT22;13129;48.012;10.352;2024-02-16T23:47:45;10.60;99.90
25170;DHT22;13129;48.012;10.352;2024-02-16T23:50:11;10.60;99.90
25170;DHT22;13129;48.012;10.352;2024-02-16T23:52:37;10.60;99.90
25170;DHT22;13129;48.012;10.352;2024-02-16T23:55:03;10.60;99.90
25170;DHT22;13129;48.012;10.352;2024-02-16T23:57:30;10.60;99.90
25170;DHT22;13129;48.012;10.352;2024-02-16T23:59:55;10.50;99.90
